Time;durP1;ratioP1;P1;durP2;ratioP2;P2;SDS_P1;SDS_P2;PMS_P1;PMS_P2;Temp;Humidity;BMP_temperature;BMP_pressure;BME280_temperature;BME280_humidity;BME280_pressure;Samples;Min_cycle;Max_cycle;Signal;HPM_P1;HPM_P2
2024/01/07 00:02:07;;;;;;;;;;;;;;;;;;107142;1251;59888;-79
2024/01/07 00:04:34;;;;;;;;;;;;;;;;;;107174;1251;59424;-80
2024/01/07 00:07:00;;;;;;;;;;;;;;;;;;107167;1251;59814;-79
2024/01/07 00:09:27;;;;;;;;;;;;;;;;;;107120;1251;59946;-80
2024/01/07 00:11:53;;;;;;;;;;;;;;;;;;107165;1251;59723;-80
2024/01/07 00:14:20;;;;;;;;;;;;;;;;;;107122;1251;62104;-80
2024/01/07 00:16:46;;;;;;;;;;;;;;;;;;107236;1251;60813;-79
2024/01/07 00:19:12;;;;;;;;;;;;;;;;;;107240;1251;61941;-80
2024/01/07 00:21:39;;;;;;;;;;;;;;;;;;108326;1249;61690;-79
2024/01/07 00:24:05;;;;;;;;;;;;;;;;;;109720;1250;58884;-79
2024/01/07 00:26:32;;;;;;;;;;;;;;;;;;109729;1251;59174;-79
2024/01/07 00:28:58;;;;;;;;;;;;;;;;;;109746;1250;59108;-80
2024/01/07 00:31:24;;;;;;;;;;;;;;;;;;109709;1251;59165;-80
2024/01/07 00:33:51;;;;;;;;;;;;;;;;;;108193;1250;59818;-79
2024/01/07 00:36:17;;;;;;;;;;;;;;;;;;107856;1251;59992;-79
2024/01/07 00:38:43;;;;;;;;;;;;;;;;;;108720;1251;60754;-79
2024/01/07 00:41:10;;;;;;;;;;;;;;;;;;107088;1255;61936;-79
2024/01/07 00:43:36;;;;;;;;;;;;;;;;;;107090;1250;61989;-79
2024/01/07 00:46:03;;;;;;;;;;;;;;;;;;107107;1250;60761;-79
2024/01/07 00:48:29;;;;;;;;;;;;;;;;;;107064;1253;59813;-79
2024/01/07 00:50:55;;;;;;;;;;;;;;;;;;107521;1250;59926;-80
2024/01/07 00:53:22;;;;;;;;;;;;;;;;;;109704;1250;59151;-80
2024/01/07 00:55:48;;;;;;;;;;;;;;;;;;109735;1251;58988;-79
2024/01/07 00:58:14;;;;;;;;;;;;;;;;;;109709;1250;58980;-79
2024/01/07 01:00:41;;;;;;;;;;;;;;;;;;109678;1251;58871;-80
2024/01/07 01:03:07;;;;;;;;;;;;;;;;;;109555;1251;58942;-80
2024/01/07 01:05:34;;;;;;;;;;;;;;;;;;108157;1253;62066;-79
2024/01/07 01:08:00;;;;;;;;;;;;;;;;;;107188;1251;59865;-80
2024/01/07 01:10:26;;;;;;;;;;;;;;;;;;108443;1251;60867;-80
2024/01/07 01:12:54;;;;;;;;;;;;;;;;;;107174;1254;60809;-80
2024/01/07 01:15:20;;;;;;;;;;;;;;;;;;107109;1251;59736;-79
2024/01/07 01:17:46;;;;;;;;;;;;;;;;;;107079;1253;59905;-80
2024/01/07 01:20:13;;;;;;;;;;;;;;;;;;109565;1251;59157;-80
2024/01/07 01:22:39;;;;;;;;;;;;;;;;;;107872;1254;59762;-79
2024/01/07 01:25:05;;;;;;;;;;;;;;;;;;107123;1251;59781;-79
2024/01/07 01:27:32;;;;;;;;;;;;;;;;;;107166;1254;59834;-79
2024/01/07 01:29:58;;;;;;;;;;;;;;;;;;107118;1251;60765;-79
2024/01/07 01:32:24;;;;;;;;;;;;;;;;;;107168;1249;60836;-79
2024/01/07 01:34:51;;;;;;;;;;;;;;;;;;107132;1253;59822;-79
2024/01/07 01:37:17;;;;;;;;;;;;;;;;;;107167;1253;59931;-79
2024/01/07 01:39:43;;;;;;;;;;;;;;;;;;107148;1251;59324;-79
2024/01/07 01:42:10;;;;;;;;;;;;;;;;;;107158;1251;60732;-79
2024/01/07 01:44:36;;;;;;;;;;;;;;;;;;107051;1253;60220;-79
2024/01/07 01:47:02;;;;;;;;;;;;;;;;;;107032;1250;59890;-79
2024/01/07 01:49:28;;;;;;;;;;;;;;;;;;107117;1251;60309;-79
2024/01/07 01:51:55;;;;;;;;;;;;;;;;;;107098;1254;59810;-79
2024/01/07 01:54:21;;;;;;;;;;;;;;;;;;107099;1253;59807;-80
2024/01/07 01:56:47;;;;;;;;;;;;;;;;;;107113;1251;59814;-80
2024/01/07 01:59:14;;;;;;;;;;;;;;;;;;107163;1253;60907;-80
2024/01/07 02:01:40;;;;;;;;;;;;;;;;;;107131;1251;60774;-80
2024/01/07 02:04:07;;;;;;;;;;;;;;;;;;107140;1251;59761;-80
2024/01/07 02:06:33;;;;;;;;;;;;;;;;;;107214;1253;59802;-80
2024/01/07 02:08:59;;;;;;;;;;;;;;;;;;107155;1254;60838;-80
2024/01/07 02:11:26;;;;;;;;;;;;;;;;;;107209;1251;60889;-79
2024/01/07 02:13:52;;;;;;;;;;;;;;;;;;107203;1251;59214;-79
2024/01/07 02:16:18;;;;;;;;;;;;;;;;;;107160;1251;59783;-79
2024/01/07 02:18:45;;;;;;;;;;;;;;;;;;107109;1251;59880;-79
2024/01/07 02:21:11;;;;;;;;;;;;;;;;;;107142;1253;59834;-80
2024/01/07 02:23:37;;;;;;;;;;;;;;;;;;107082;1250;59106;-81
2024/01/07 02:26:04;;;;;;;;;;;;;;;;;;107156;1251;59878;-80
2024/01/07 02:28:30;;;;;;;;;;;;;;;;;;107142;1251;59920;-80
2024/01/07 02:30:56;;;;;;;;;;;;;;;;;;107099;1253;59872;-80
2024/01/07 02:33:23;;;;;;;;;;;;;;;;;;107145;1250;59826;-79
2024/01/07 02:35:49;;;;;;;;;;;;;;;;;;107150;1250;59797;-80
2024/01/07 02:38:15;;;;;;;;;;;;;;;;;;107197;1253;59716;-80
2024/01/07 02:40:42;;;;;;;;;;;;;;;;;;107203;1251;60949;-80
2024/01/07 02:43:08;;;;;;;;;;;;;;;;;;107161;1251;59841;-79
2024/01/07 02:45:34;;;;;;;;;;;;;;;;;;107057;1251;59725;-79
2024/01/07 02:48:01;;;;;;;;;;;;;;;;;;107070;1253;59767;-79
2024/01/07 02:50:27;;;;;;;;;;;;;;;;;;107078;1251;59600;-80
2024/01/07 02:52:53;;;;;;;;;;;;;;;;;;107102;1251;60773;-80
2024/01/07 02:55:20;;;;;;;;;;;;;;;;;;107074;1251;60740;-79
2024/01/07 02:57:46;;;;;;;;;;;;;;;;;;107129;1254;60943;-79
2024/01/07 03:00:12;;;;;;;;;;;;;;;;;;107076;1251;59828;-79
2024/01/07 03:02:38;;;;;;;;;;;;;;;;;;107088;1253;61810;-80
2024/01/07 03:05:05;;;;;;;;;;;;;;;;;;107015;1254;60216;-80
2024/01/07 03:07:31;;;;;;;;;;;;;;;;;;107086;1251;60875;-80
2024/01/07 03:09:57;;;;;;;;;;;;;;;;;;107081;1251;59878;-80
2024/01/07 03:12:24;;;;;;;;;;;;;;;;;;107132;1251;60950;-80
2024/01/07 03:14:50;;;;;;;;;;;;;;;;;;107078;1251;59809;-80
2024/01/07 03:17:17;;;;;;;;;;;;;;;;;;107036;1253;61919;-80
2024/01/07 03:19:43;;;;;;;;;;;;;;;;;;107055;1253;62017;-80
2024/01/07 03:22:10;;;;;;;;;;;;;;;;;;107084;1251;61098;-80
2024/01/07 03:24:36;;;;;;;;;;;;;;;;;;107034;1250;60687;-80
2024/01/07 03:27:02;;;;;;;;;;;;;;;;;;107069;1250;60606;-80
2024/01/07 03:29:29;;;;;;;;;;;;;;;;;;107117;1253;59743;-80
2024/01/07 03:31:55;;;;;;;;;;;;;;;;;;107210;1251;60788;-80
2024/01/07 03:34:21;;;;;;;;;;;;;;;;;;108951;1251;59916;-80
2024/01/07 03:36:48;;;;;;;;;;;;;;;;;;109718;1250;59107;-80
2024/01/07 03:39:14;;;;;;;;;;;;;;;;;;107547;1251;62018;-80
2024/01/07 03:41:40;;;;;;;;;;;;;;;;;;107092;1253;59731;-80
2024/01/07 03:44:06;;;;;;;;;;;;;;;;;;106990;1253;59943;-80
2024/01/07 03:46:33;;;;;;;;;;;;;;;;;;107042;1251;59893;-80
2024/01/07 03:48:59;;;;;;;;;;;;;;;;;;107063;1251;60992;-80
2024/01/07 03:51:26;;;;;;;;;;;;;;;;;;107091;1251;60916;-80
2024/01/07 03:53:52;;;;;;;;;;;;;;;;;;107082;1253;59882;-79
2024/01/07 03:56:18;;;;;;;;;;;;;;;;;;107133;1251;61111;-80
2024/01/07 03:58:45;;;;;;;;;;;;;;;;;;107192;1251;61764;-80
2024/01/07 04:01:11;;;;;;;;;;;;;;;;;;107211;1251;61868;-79
2024/01/07 04:03:37;;;;;;;;;;;;;;;;;;107132;1251;61049;-80
2024/01/07 04:06:04;;;;;;;;;;;;;;;;;;107244;1251;60998;-80
2024/01/07 04:08:31;;;;;;;;;;;;;;;;;;107178;1251;59812;-79
2024/01/07 04:10:57;;;;;;;;;;;;;;;;;;107237;1251;59805;-79
2024/01/07 04:13:23;;;;;;;;;;;;;;;;;;107194;1250;59561;-79
2024/01/07 04:15:50;;;;;;;;;;;;;;;;;;107247;1251;60879;-79
2024/01/07 04:18:16;;;;;;;;;;;;;;;;;;107168;1251;60887;-79
2024/01/07 04:20:42;;;;;;;;;;;;;;;;;;107171;1252;59825;-80
2024/01/07 04:23:09;;;;;;;;;;;;;;;;;;107149;1254;59749;-80
2024/01/07 04:25:35;;;;;;;;;;;;;;;;;;107168;1251;59701;-80
2024/01/07 04:28:01;;;;;;;;;;;;;;;;;;107267;1251;60922;-80
2024/01/07 04:30:28;;;;;;;;;;;;;;;;;;107107;1251;59812;-80
2024/01/07 04:32:54;;;;;;;;;;;;;;;;;;107213;1251;59807;-79
2024/01/07 04:35:20;;;;;;;;;;;;;;;;;;107201;1253;62116;-80
2024/01/07 04:37:47;;;;;;;;;;;;;;;;;;107216;1251;62087;-80
2024/01/07 04:40:13;;;;;;;;;;;;;;;;;;107186;1250;60818;-80
2024/01/07 04:42:39;;;;;;;;;;;;;;;;;;109683;1251;58847;-80
2024/01/07 04:45:06;;;;;;;;;;;;;;;;;;109677;1250;58865;-80
2024/01/07 04:47:34;;;;;;;;;;;;;;;;;;109701;1249;58854;-80
2024/01/07 04:50:00;;;;;;;;;;;;;;;;;;109641;1251;58852;-80
2024/01/07 04:52:26;;;;;;;;;;;;;;;;;;108603;1251;59905;-80
2024/01/07 04:54:53;;;;;;;;;;;;;;;;;;107164;1254;60848;-80
2024/01/07 04:57:19;;;;;;;;;;;;;;;;;;107130;1250;60797;-80
2024/01/07 04:59:46;;;;;;;;;;;;;;;;;;107053;1251;60775;-80
2024/01/07 05:02:12;;;;;;;;;;;;;;;;;;107149;1251;59813;-80
2024/01/07 05:04:39;;;;;;;;;;;;;;;;;;107133;1251;60726;-80
2024/01/07 05:07:06;;;;;;;;;;;;;;;;;;107158;1251;60919;-79
2024/01/07 05:09:32;;;;;;;;;;;;;;;;;;107121;1251;59542;-80
2024/01/07 05:11:59;;;;;;;;;;;;;;;;;;107200;1251;59785;-80
2024/01/07 05:14:25;;;;;;;;;;;;;;;;;;107182;1253;59889;-80
2024/01/07 05:16:52;;;;;;;;;;;;;;;;;;107167;1251;61789;-80
2024/01/07 05:19:18;;;;;;;;;;;;;;;;;;107154;1252;60790;-80
2024/01/07 05:21:44;;;;;;;;;;;;;;;;;;107219;1252;59802;-80
2024/01/07 05:24:11;;;;;;;;;;;;;;;;;;107162;1252;59971;-80
2024/01/07 05:26:37;;;;;;;;;;;;;;;;;;107212;1251;60816;-79
2024/01/07 05:29:03;;;;;;;;;;;;;;;;;;107161;1251;60042;-79
2024/01/07 05:31:30;;;;;;;;;;;;;;;;;;107119;1251;60883;-80
2024/01/07 05:33:57;;;;;;;;;;;;;;;;;;107111;1253;60814;-79
2024/01/07 05:36:23;;;;;;;;;;;;;;;;;;107097;1250;59199;-79
2024/01/07 05:38:49;;;;;;;;;;;;;;;;;;107168;1251;60608;-80
2024/01/07 05:41:16;;;;;;;;;;;;;;;;;;107116;1251;59742;-80
2024/01/07 05:43:42;;;;;;;;;;;;;;;;;;107097;1250;60881;-80
2024/01/07 05:46:08;;;;;;;;;;;;;;;;;;107115;1251;61725;-80
2024/01/07 05:48:34;;;;;;;;;;;;;;;;;;107057;1250;59865;-80
2024/01/07 05:51:01;;;;;;;;;;;;;;;;;;107026;1250;59883;-79
2024/01/07 05:53:27;;;;;;;;;;;;;;;;;;107071;1251;59904;-79
2024/01/07 05:55:53;;;;;;;;;;;;;;;;;;107173;1250;59616;-79
2024/01/07 05:58:20;;;;;;;;;;;;;;;;;;107168;1253;59802;-80
2024/01/07 06:00:46;;;;;;;;;;;;;;;;;;107215;1251;60969;-80
2024/01/07 06:03:12;;;;;;;;;;;;;;;;;;107133;1251;59832;-80
2024/01/07 06:05:39;;;;;;;;;;;;;;;;;;107158;1251;61010;-80
2024/01/07 06:08:05;;;;;;;;;;;;;;;;;;107177;1249;59831;-80
2024/01/07 06:10:32;;;;;;;;;;;;;;;;;;107264;1251;59817;-81
2024/01/07 06:12:58;;;;;;;;;;;;;;;;;;107158;1249;59880;-79
2024/01/07 06:15:24;;;;;;;;;;;;;;;;;;107190;1253;60315;-80
2024/01/07 06:17:51;;;;;;;;;;;;;;;;;;107059;1251;62122;-80
2024/01/07 06:20:18;;;;;;;;;;;;;;;;;;107546;1251;59751;-80
2024/01/07 06:22:44;;;;;;;;;;;;;;;;;;107163;1250;59801;-80
2024/01/07 06:25:10;;;;;;;;;;;;;;;;;;107117;1249;60867;-80
2024/01/07 06:27:37;;;;;;;;;;;;;;;;;;109756;1250;60256;-80
2024/01/07 06:30:04;;;;;;;;;;;;;;;;;;109764;1251;58886;-79
2024/01/07 06:32:32;;;;;;;;;;;;;;;;;;109751;1249;58920;-80
2024/01/07 06:34:58;;;;;;;;;;;;;;;;;;109598;1251;195140;-80
2024/01/07 06:37:25;;;;;;;;;;;;;;;;;;109638;1251;58896;-80
2024/01/07 06:39:51;;;;;;;;;;;;;;;;;;109129;1250;59316;-80
2024/01/07 06:42:17;;;;;;;;;;;;;;;;;;107368;1251;62356;-80
2024/01/07 06:44:44;;;;;;;;;;;;;;;;;;107000;1251;61951;-80
2024/01/07 06:47:10;;;;;;;;;;;;;;;;;;106973;1251;60930;-80
2024/01/07 06:49:37;;;;;;;;;;;;;;;;;;106954;1251;60648;-80
2024/01/07 06:52:03;;;;;;;;;;;;;;;;;;107008;1251;59796;-80
2024/01/07 06:54:29;;;;;;;;;;;;;;;;;;107016;1251;59861;-80
2024/01/07 06:56:56;;;;;;;;;;;;;;;;;;106983;1251;60941;-80
2024/01/07 06:59:22;;;;;;;;;;;;;;;;;;107052;1251;61923;-80
2024/01/07 07:01:48;;;;;;;;;;;;;;;;;;107081;1251;62011;-79
2024/01/07 07:04:15;;;;;;;;;;;;;;;;;;107065;1251;62040;-80
2024/01/07 07:06:41;;;;;;;;;;;;;;;;;;107100;1251;59376;-80
2024/01/07 07:09:07;;;;;;;;;;;;;;;;;;107040;1251;59892;-80
2024/01/07 07:11:34;;;;;;;;;;;;;;;;;;107097;1251;59741;-79
2024/01/07 07:14:00;;;;;;;;;;;;;;;;;;107109;1250;59653;-79
2024/01/07 07:16:27;;;;;;;;;;;;;;;;;;106987;1251;62018;-80
2024/01/07 07:18:53;;;;;;;;;;;;;;;;;;107066;1251;60588;-79
2024/01/07 07:21:20;;;;;;;;;;;;;;;;;;107064;1251;59784;-79
2024/01/07 07:23:46;;;;;;;;;;;;;;;;;;107235;1251;59695;-79
2024/01/07 07:26:12;;;;;;;;;;;;;;;;;;107047;1250;59737;-79
2024/01/07 07:28:39;;;;;;;;;;;;;;;;;;107852;1250;60872;-79
2024/01/07 07:31:05;;;;;;;;;;;;;;;;;;109081;1250;59152;-80
2024/01/07 07:33:31;;;;;;;;;;;;;;;;;;107625;1250;61019;-79
2024/01/07 07:35:58;;;;;;;;;;;;;;;;;;109634;1251;59202;-80
2024/01/07 07:38:24;;;;;;;;;;;;;;;;;;109580;1250;58868;-80
2024/01/07 07:40:52;;;;;;;;;;;;;;;;;;108577;1251;60784;-79
2024/01/07 07:43:19;;;;;;;;;;;;;;;;;;108053;1251;59233;-80
2024/01/07 07:45:45;;;;;;;;;;;;;;;;;;109527;1251;59242;-80
2024/01/07 07:48:11;;;;;;;;;;;;;;;;;;109537;1251;58949;-80
2024/01/07 07:50:38;;;;;;;;;;;;;;;;;;109536;1251;58980;-80
2024/01/07 07:53:04;;;;;;;;;;;;;;;;;;109532;1251;59169;-79
2024/01/07 07:55:31;;;;;;;;;;;;;;;;;;109511;1251;58980;-80
2024/01/07 07:57:57;;;;;;;;;;;;;;;;;;108326;1252;59876;-80
2024/01/07 08:00:24;;;;;;;;;;;;;;;;;;107001;1254;60823;-80
2024/01/07 08:02:50;;;;;;;;;;;;;;;;;;107888;1251;59844;-80
2024/01/07 08:05:17;;;;;;;;;;;;;;;;;;109575;1251;58833;-80
2024/01/07 08:07:44;;;;;;;;;;;;;;;;;;109242;1251;59404;-80
2024/01/07 08:10:10;;;;;;;;;;;;;;;;;;109574;1250;58883;-80
2024/01/07 08:12:36;;;;;;;;;;;;;;;;;;109565;1251;59070;-80
2024/01/07 08:15:03;;;;;;;;;;;;;;;;;;109570;1251;59293;-80
2024/01/07 08:17:29;;;;;;;;;;;;;;;;;;109562;1251;59100;-80
2024/01/07 08:19:56;;;;;;;;;;;;;;;;;;109561;1251;59047;-80
2024/01/07 08:22:22;;;;;;;;;;;;;;;;;;109538;1251;59113;-80
2024/01/07 08:24:50;;;;;;;;;;;;;;;;;;109598;1251;59216;-80
2024/01/07 08:27:16;;;;;;;;;;;;;;;;;;109574;1252;58882;-80
2024/01/07 08:29:42;;;;;;;;;;;;;;;;;;109560;1251;58886;-80
2024/01/07 08:32:09;;;;;;;;;;;;;;;;;;109556;1251;58902;-80
2024/01/07 08:34:36;;;;;;;;;;;;;;;;;;109566;1251;58928;-79
2024/01/07 08:37:02;;;;;;;;;;;;;;;;;;109633;1250;58866;-79
2024/01/07 08:39:29;;;;;;;;;;;;;;;;;;109558;1251;59163;-80
2024/01/07 08:41:55;;;;;;;;;;;;;;;;;;109597;1250;59006;-80
2024/01/07 08:44:21;;;;;;;;;;;;;;;;;;109539;1251;58931;-79
2024/01/07 08:46:48;;;;;;;;;;;;;;;;;;109551;1250;58885;-80
2024/01/07 08:49:15;;;;;;;;;;;;;;;;;;109576;1250;58936;-79
2024/01/07 08:51:41;;;;;;;;;;;;;;;;;;109585;1251;58892;-79
2024/01/07 08:54:07;;;;;;;;;;;;;;;;;;107698;1251;59257;-79
2024/01/07 08:56:34;;;;;;;;;;;;;;;;;;106928;1251;62008;-79
2024/01/07 08:59:00;;;;;;;;;;;;;;;;;;106962;1251;59832;-79
2024/01/07 09:01:26;;;;;;;;;;;;;;;;;;107032;1250;60894;-80
2024/01/07 09:03:53;;;;;;;;;;;;;;;;;;106981;1251;59922;-79
2024/01/07 09:06:19;;;;;;;;;;;;;;;;;;107004;1251;59272;-79
2024/01/07 09:08:45;;;;;;;;;;;;;;;;;;107046;1250;60912;-80
2024/01/07 09:11:13;;;;;;;;;;;;;;;;;;107015;1251;60926;-80
2024/01/07 09:13:39;;;;;;;;;;;;;;;;;;106999;1251;60830;-79
2024/01/07 09:16:07;;;;;;;;;;;;;;;;;;107039;1251;59861;-80
2024/01/07 09:18:34;;;;;;;;;;;;;;;;;;107024;1251;59726;-80
2024/01/07 09:21:00;;;;;;;;;;;;;;;;;;106968;1251;59761;-80
2024/01/07 09:23:27;;;;;;;;;;;;;;;;;;107055;1251;59728;-80
2024/01/07 09:25:53;;;;;;;;;;;;;;;;;;107054;1251;60951;-80
2024/01/07 09:28:19;;;;;;;;;;;;;;;;;;107052;1251;59987;-80
2024/01/07 09:30:46;;;;;;;;;;;;;;;;;;107110;1251;60948;-80
2024/01/07 09:33:12;;;;;;;;;;;;;;;;;;109163;1251;59115;-80
2024/01/07 09:35:38;;;;;;;;;;;;;;;;;;107475;1251;60809;-80
2024/01/07 09:38:05;;;;;;;;;;;;;;;;;;107118;1251;60867;-80
2024/01/07 09:40:31;;;;;;;;;;;;;;;;;;106991;1251;59815;-80
2024/01/07 09:42:59;;;;;;;;;;;;;;;;;;107038;1250;59839;-79
2024/01/07 09:45:25;;;;;;;;;;;;;;;;;;107046;1251;60900;-80
2024/01/07 09:47:51;;;;;;;;;;;;;;;;;;106974;1254;60901;-79
2024/01/07 09:50:18;;;;;;;;;;;;;;;;;;106958;1251;59814;-79
2024/01/07 09:52:45;;;;;;;;;;;;;;;;;;106964;1251;59604;-80
2024/01/07 09:55:11;;;;;;;;;;;;;;;;;;106908;1251;60872;-79
2024/01/07 09:57:37;;;;;;;;;;;;;;;;;;106964;1254;59871;-80
2024/01/07 10:00:04;;;;;;;;;;;;;;;;;;106992;1251;60815;-79
2024/01/07 10:02:31;;;;;;;;;;;;;;;;;;107113;1251;59786;-79
2024/01/07 10:04:57;;;;;;;;;;;;;;;;;;107483;1251;61612;-79
2024/01/07 10:07:25;;;;;;;;;;;;;;;;;;106976;1251;59796;-79
2024/01/07 10:09:53;;;;;;;;;;;;;;;;;;106948;1251;60863;-79
2024/01/07 10:12:20;;;;;;;;;;;;;;;;;;107010;1250;59798;-79
2024/01/07 10:14:46;;;;;;;;;;;;;;;;;;106924;1251;59815;-79
2024/01/07 10:17:12;;;;;;;;;;;;;;;;;;108073;1251;59749;-80
2024/01/07 10:19:39;;;;;;;;;;;;;;;;;;109210;1251;58888;-79
2024/01/07 10:22:05;;;;;;;;;;;;;;;;;;106930;1251;61976;-80
2024/01/07 10:24:32;;;;;;;;;;;;;;;;;;107017;1251;59878;-80
2024/01/07 10:26:58;;;;;;;;;;;;;;;;;;107030;1251;59875;-80
2024/01/07 10:29:24;;;;;;;;;;;;;;;;;;107072;1251;59808;-80
2024/01/07 10:31:51;;;;;;;;;;;;;;;;;;106992;1251;59892;-80
2024/01/07 10:34:17;;;;;;;;;;;;;;;;;;106913;1251;61777;-79
2024/01/07 10:36:43;;;;;;;;;;;;;;;;;;107059;1251;59835;-80
2024/01/07 10:39:10;;;;;;;;;;;;;;;;;;107137;1250;59191;-80
2024/01/07 10:41:36;;;;;;;;;;;;;;;;;;107049;1253;59220;-80
2024/01/07 10:44:02;;;;;;;;;;;;;;;;;;106917;1251;59780;-80
2024/01/07 10:46:30;;;;;;;;;;;;;;;;;;107049;1251;59938;-81
2024/01/07 10:48:57;;;;;;;;;;;;;;;;;;106992;1251;60300;-80
2024/01/07 10:51:23;;;;;;;;;;;;;;;;;;107064;1251;59096;-80
2024/01/07 10:53:49;;;;;;;;;;;;;;;;;;106969;1251;60518;-80
2024/01/07 10:56:16;;;;;;;;;;;;;;;;;;107091;1250;60888;-80
2024/01/07 10:58:42;;;;;;;;;;;;;;;;;;106997;1251;59964;-80
2024/01/07 11:01:08;;;;;;;;;;;;;;;;;;106950;1251;60736;-80
2024/01/07 11:03:35;;;;;;;;;;;;;;;;;;107151;1251;60055;-80
2024/01/07 11:06:02;;;;;;;;;;;;;;;;;;107120;1251;59805;-80
2024/01/07 11:08:29;;;;;;;;;;;;;;;;;;108795;1251;59734;-80
2024/01/07 11:10:55;;;;;;;;;;;;;;;;;;109233;1251;58845;-80
2024/01/07 11:13:21;;;;;;;;;;;;;;;;;;107096;1251;59770;-80
2024/01/07 11:15:48;;;;;;;;;;;;;;;;;;107023;1250;62056;-80
2024/01/07 11:18:14;;;;;;;;;;;;;;;;;;107062;1251;59790;-80
2024/01/07 11:20:41;;;;;;;;;;;;;;;;;;107113;1251;59736;-80
2024/01/07 11:23:07;;;;;;;;;;;;;;;;;;107538;1251;59832;-80
2024/01/07 11:25:34;;;;;;;;;;;;;;;;;;107101;1251;60869;-81
2024/01/07 11:28:01;;;;;;;;;;;;;;;;;;106998;1250;60953;-80
2024/01/07 11:30:27;;;;;;;;;;;;;;;;;;107076;1251;59898;-80
2024/01/07 11:32:54;;;;;;;;;;;;;;;;;;107662;1251;60895;-80
2024/01/07 11:35:23;;;;;;;;;;;;;;;;;;107629;1251;59258;-80
2024/01/07 11:37:55;;;;;;;;;;;;;;;;;;107686;1251;59912;-80
2024/01/07 11:40:21;;;;;;;;;;;;;;;;;;107098;1251;61987;-80
2024/01/07 11:42:48;;;;;;;;;;;;;;;;;;107011;1251;59236;-80
2024/01/07 11:45:16;;;;;;;;;;;;;;;;;;106993;1251;60795;-80
2024/01/07 11:47:42;;;;;;;;;;;;;;;;;;107019;1251;59765;-80
2024/01/07 11:50:08;;;;;;;;;;;;;;;;;;107019;1251;60966;-81
2024/01/07 11:52:36;;;;;;;;;;;;;;;;;;107053;1251;59242;-80
2024/01/07 11:55:02;;;;;;;;;;;;;;;;;;107063;1250;61768;-81
2024/01/07 11:57:29;;;;;;;;;;;;;;;;;;107047;1251;59744;-80
2024/01/07 11:59:56;;;;;;;;;;;;;;;;;;107082;1251;59853;-80
2024/01/07 12:02:22;;;;;;;;;;;;;;;;;;107158;1250;60462;-80
2024/01/07 12:04:49;;;;;;;;;;;;;;;;;;107081;1254;60853;-80
2024/01/07 12:07:15;;;;;;;;;;;;;;;;;;107049;1251;62025;-80
2024/01/07 12:09:42;;;;;;;;;;;;;;;;;;107111;1252;62121;-80
2024/01/07 12:12:08;;;;;;;;;;;;;;;;;;106983;1251;59645;-80
2024/01/07 12:14:34;;;;;;;;;;;;;;;;;;107124;1251;59225;-80
2024/01/07 12:17:01;;;;;;;;;;;;;;;;;;107084;1250;59892;-80
2024/01/07 12:19:27;;;;;;;;;;;;;;;;;;107295;1251;59932;-80
2024/01/07 12:21:53;;;;;;;;;;;;;;;;;;109632;1250;58860;-80
2024/01/07 12:24:20;;;;;;;;;;;;;;;;;;109642;1250;58858;-80
2024/01/07 12:26:47;;;;;;;;;;;;;;;;;;109658;1251;58887;-80
2024/01/07 12:29:14;;;;;;;;;;;;;;;;;;109638;1250;58751;-80
2024/01/07 12:31:41;;;;;;;;;;;;;;;;;;108251;1251;59901;-80
2024/01/07 12:34:08;;;;;;;;;;;;;;;;;;107060;1250;59860;-80
2024/01/07 12:36:34;;;;;;;;;;;;;;;;;;107098;1251;60870;-80
2024/01/07 12:39:00;;;;;;;;;;;;;;;;;;107001;1251;60821;-80
2024/01/07 12:41:27;;;;;;;;;;;;;;;;;;107052;1251;61983;-80
2024/01/07 12:43:53;;;;;;;;;;;;;;;;;;106985;1251;59803;-80
2024/01/07 12:46:20;;;;;;;;;;;;;;;;;;106969;1251;62110;-81
2024/01/07 12:48:46;;;;;;;;;;;;;;;;;;106950;1252;62113;-80
2024/01/07 12:51:13;;;;;;;;;;;;;;;;;;106968;1253;61770;-79
2024/01/07 12:53:39;;;;;;;;;;;;;;;;;;107027;1251;60882;-80
2024/01/07 12:56:05;;;;;;;;;;;;;;;;;;107061;1251;62120;-80
2024/01/07 12:58:32;;;;;;;;;;;;;;;;;;107110;1250;62072;-80
2024/01/07 13:00:59;;;;;;;;;;;;;;;;;;107092;1251;61793;-80
2024/01/07 13:03:25;;;;;;;;;;;;;;;;;;109397;1250;59033;-81
2024/01/07 13:05:52;;;;;;;;;;;;;;;;;;109661;1251;59190;-80
2024/01/07 13:08:18;;;;;;;;;;;;;;;;;;109656;1250;59092;-79
2024/01/07 13:10:45;;;;;;;;;;;;;;;;;;109612;1250;59106;-79
2024/01/07 13:13:12;;;;;;;;;;;;;;;;;;109615;1251;58869;-79
2024/01/07 13:15:39;;;;;;;;;;;;;;;;;;109652;1250;58957;-79
2024/01/07 13:18:05;;;;;;;;;;;;;;;;;;109663;1251;58874;-79
2024/01/07 13:20:31;;;;;;;;;;;;;;;;;;109653;1250;58944;-79
2024/01/07 13:22:58;;;;;;;;;;;;;;;;;;109638;1251;58875;-80
2024/01/07 13:25:24;;;;;;;;;;;;;;;;;;109634;1250;58961;-79
2024/01/07 13:27:51;;;;;;;;;;;;;;;;;;109640;1251;58881;-79
2024/01/07 13:30:17;;;;;;;;;;;;;;;;;;107715;1251;60807;-79
2024/01/07 13:32:44;;;;;;;;;;;;;;;;;;108838;1250;59098;-80
2024/01/07 13:35:11;;;;;;;;;;;;;;;;;;109618;1250;58876;-79
2024/01/07 13:37:41;;;;;;;;;;;;;;;;;;108635;1250;59373;-79
2024/01/07 13:40:10;;;;;;;;;;;;;;;;;;109639;1251;59032;-79
2024/01/07 13:42:36;;;;;;;;;;;;;;;;;;107063;1250;59736;-79
2024/01/07 13:45:03;;;;;;;;;;;;;;;;;;106856;1251;60836;-79
2024/01/07 13:47:29;;;;;;;;;;;;;;;;;;106870;1251;62112;-79
2024/01/07 13:49:55;;;;;;;;;;;;;;;;;;106996;1251;61747;-79
2024/01/07 13:52:22;;;;;;;;;;;;;;;;;;107023;1251;59822;-79
2024/01/07 13:54:49;;;;;;;;;;;;;;;;;;107032;1250;60788;-79
2024/01/07 13:57:15;;;;;;;;;;;;;;;;;;107115;1250;60286;-79
2024/01/07 13:59:41;;;;;;;;;;;;;;;;;;107008;1251;62174;-79
2024/01/07 14:02:08;;;;;;;;;;;;;;;;;;107076;1251;62110;-79
2024/01/07 14:04:35;;;;;;;;;;;;;;;;;;107159;1251;59801;-80
2024/01/07 14:07:01;;;;;;;;;;;;;;;;;;107137;1251;60848;-79
2024/01/07 14:09:31;;;;;;;;;;;;;;;;;;107112;1251;60744;-80
2024/01/07 14:11:57;;;;;;;;;;;;;;;;;;107084;1251;60778;-79
2024/01/07 14:14:23;;;;;;;;;;;;;;;;;;107051;1254;60897;-79
2024/01/07 14:16:50;;;;;;;;;;;;;;;;;;106956;1251;59913;-79
2024/01/07 14:19:16;;;;;;;;;;;;;;;;;;107052;1251;60882;-79
2024/01/07 14:21:43;;;;;;;;;;;;;;;;;;107145;1251;60920;-79
2024/01/07 14:24:09;;;;;;;;;;;;;;;;;;107037;1251;59921;-79
2024/01/07 14:26:35;;;;;;;;;;;;;;;;;;106985;1251;59834;-79
2024/01/07 14:29:01;;;;;;;;;;;;;;;;;;107059;1251;60947;-79
2024/01/07 14:31:28;;;;;;;;;;;;;;;;;;107114;1251;59221;-79
2024/01/07 14:33:54;;;;;;;;;;;;;;;;;;107096;1255;60888;-79
2024/01/07 14:36:20;;;;;;;;;;;;;;;;;;107088;1251;61091;-80
2024/01/07 14:38:47;;;;;;;;;;;;;;;;;;107001;1253;59404;-79
2024/01/07 14:41:13;;;;;;;;;;;;;;;;;;107064;1253;59896;-79
2024/01/07 14:43:40;;;;;;;;;;;;;;;;;;107029;1253;59860;-79
2024/01/07 14:46:07;;;;;;;;;;;;;;;;;;107063;1251;60935;-79
2024/01/07 14:48:33;;;;;;;;;;;;;;;;;;107003;1251;59776;-79
2024/01/07 14:51:00;;;;;;;;;;;;;;;;;;107005;1253;61763;-79
2024/01/07 14:53:28;;;;;;;;;;;;;;;;;;107025;1251;60797;-79
2024/01/07 14:55:54;;;;;;;;;;;;;;;;;;107131;1251;60734;-79
2024/01/07 14:58:22;;;;;;;;;;;;;;;;;;107050;1251;62081;-78
2024/01/07 15:00:49;;;;;;;;;;;;;;;;;;107134;1251;60865;-80
2024/01/07 15:03:16;;;;;;;;;;;;;;;;;;107081;1251;59828;-79
2024/01/07 15:05:43;;;;;;;;;;;;;;;;;;106906;1251;60804;-79
2024/01/07 15:08:12;;;;;;;;;;;;;;;;;;107067;1251;59736;-79
2024/01/07 15:10:39;;;;;;;;;;;;;;;;;;107056;1251;61987;-79
2024/01/07 15:13:05;;;;;;;;;;;;;;;;;;107111;1251;60710;-80
2024/01/07 15:15:32;;;;;;;;;;;;;;;;;;107110;1251;61864;-80
2024/01/07 15:17:58;;;;;;;;;;;;;;;;;;107100;1251;61999;-80
2024/01/07 15:20:24;;;;;;;;;;;;;;;;;;107202;1251;59841;-80
2024/01/07 15:22:51;;;;;;;;;;;;;;;;;;107110;1251;60800;-80
2024/01/07 15:25:17;;;;;;;;;;;;;;;;;;107065;1251;59922;-80
2024/01/07 15:27:45;;;;;;;;;;;;;;;;;;107041;1251;61044;-80
2024/01/07 15:30:11;;;;;;;;;;;;;;;;;;107062;1250;60804;-80
2024/01/07 15:32:37;;;;;;;;;;;;;;;;;;107144;1251;59845;-80
2024/01/07 15:35:08;;;;;;;;;;;;;;;;;;107110;1254;60953;-80
2024/01/07 15:37:35;;;;;;;;;;;;;;;;;;108594;1251;60749;-80
2024/01/07 15:40:03;;;;;;;;;;;;;;;;;;109654;1250;58885;-80
2024/01/07 15:42:29;;;;;;;;;;;;;;;;;;107929;1251;60849;-80
2024/01/07 15:44:55;;;;;;;;;;;;;;;;;;106994;1251;59750;-80
2024/01/07 15:47:23;;;;;;;;;;;;;;;;;;107031;1253;59735;-80
2024/01/07 15:49:49;;;;;;;;;;;;;;;;;;107065;1251;59806;-80
2024/01/07 15:52:15;;;;;;;;;;;;;;;;;;107130;1252;59844;-80
2024/01/07 15:54:42;;;;;;;;;;;;;;;;;;107125;1251;59833;-80
2024/01/07 15:57:08;;;;;;;;;;;;;;;;;;107174;1251;59762;-81
2024/01/07 15:59:34;;;;;;;;;;;;;;;;;;107130;1251;59741;-80
2024/01/07 16:02:01;;;;;;;;;;;;;;;;;;107130;1250;59897;-80
2024/01/07 16:04:27;;;;;;;;;;;;;;;;;;107123;1251;61864;-80
2024/01/07 16:06:53;;;;;;;;;;;;;;;;;;107855;1252;61928;-80
2024/01/07 16:09:20;;;;;;;;;;;;;;;;;;109653;1251;59090;-80
2024/01/07 16:11:46;;;;;;;;;;;;;;;;;;108419;1254;60936;-80
2024/01/07 16:14:13;;;;;;;;;;;;;;;;;;107135;1255;59742;-81
2024/01/07 16:16:41;;;;;;;;;;;;;;;;;;107086;1251;60926;-80
2024/01/07 16:19:09;;;;;;;;;;;;;;;;;;107034;1251;59928;-81
2024/01/07 16:21:36;;;;;;;;;;;;;;;;;;107079;1252;59818;-80
2024/01/07 16:24:03;;;;;;;;;;;;;;;;;;107115;1251;60785;-80